createdAt,value
2017-04-02T00:00:18.380Z,99.37
2017-04-02T00:01:18.361Z,99.18
2017-04-02T00:02:18.043Z,99.08
2017-04-02T00:03:18.328Z,99.08
2017-04-02T00:04:18.311Z,99.08
2017-04-02T00:05:18.297Z,99.18
2017-04-02T00:06:18.279Z,99.08
2017-04-02T00:07:18.260Z,98.71
2017-04-02T00:08:18.241Z,99.18
2017-04-02T00:09:18.231Z,98.8
2017-04-02T00:10:17.909Z,98.71
2017-04-02T00:11:18.194Z,98.99
2017-04-02T00:12:18.176Z,98.8
2017-04-02T00:13:18.160Z,98.71
2017-04-02T00:14:18.143Z,98.71
2017-04-02T00:15:18.123Z,98.8
2017-04-02T00:16:18.106Z,98.8
2017-04-02T00:17:18.090Z,98.8
2017-04-02T00:18:18.080Z,99.08
2017-04-02T00:19:18.055Z,98.8
2017-04-02T00:20:18.042Z,98.8
2017-04-02T00:21:17.721Z,99.08
2017-04-02T00:22:18.049Z,99.08
2017-04-02T00:23:17.994Z,99.18
2017-04-02T00:24:18.176Z,98.71
2017-04-02T00:25:17.957Z,99.18
2017-04-02T00:26:17.940Z,99.08
2017-04-02T00:27:17.921Z,99.18
2017-04-02T00:28:17.907Z,99.18
2017-04-02T00:29:17.889Z,99.08
2017-04-02T00:30:17.871Z,99.08
2017-04-02T00:31:17.855Z,98.8
2017-04-02T00:32:18.047Z,98.8
2017-04-02T00:33:17.819Z,99.18
2017-04-02T00:34:17.805Z,99.18
2017-04-02T00:35:17.786Z,99.18
2017-04-02T00:36:17.771Z,99.08
2017-04-02T00:37:17.753Z,99.18
2017-04-02T00:38:17.735Z,98.8
2017-04-02T00:39:17.720Z,99.37
2017-04-02T00:40:17.703Z,99.27
2017-04-02T00:41:17.688Z,99.08
2017-04-02T00:42:17.669Z,99.27
2017-04-02T00:43:17.649Z,99.18
2017-04-02T00:44:17.334Z,99.65
2017-04-02T00:45:17.616Z,99.37
2017-04-02T00:46:17.598Z,99.56
2017-04-02T00:47:17.584Z,99.46
2017-04-02T00:48:17.565Z,99.46
2017-04-02T00:49:17.551Z,99.56
2017-04-02T00:50:17.532Z,99.46
2017-04-02T00:51:17.518Z,99.65
2017-04-02T00:52:17.498Z,99.75
2017-04-02T00:53:17.696Z,99.46
2017-04-02T00:54:17.469Z,99.65
2017-04-02T00:55:17.447Z,99.56
2017-04-02T00:56:17.432Z,99.65
2017-04-02T00:57:17.414Z,99.56
2017-04-02T00:58:30.781Z,99.75
2017-04-02T00:59:17.382Z,99.75
2017-04-02T01:00:17.365Z,99.56
2017-04-02T01:01:17.051Z,99.46
2017-04-02T01:02:31.943Z,99.56
2017-04-02T01:03:17.516Z,99.75
2017-04-02T01:04:17.293Z,99.75
2017-04-02T01:05:17.280Z,99.56
2017-04-02T01:06:17.263Z,99.08
2017-04-02T01:07:17.244Z,99.32
2017-04-02T01:08:17.232Z,99.6
2017-04-02T01:09:17.212Z,99.7
2017-04-02T01:10:17.196Z,99.6
2017-04-02T01:11:17.179Z,99.51
2017-04-02T01:12:17.160Z,99.32
2017-04-02T01:13:17.144Z,99.32
2017-04-02T01:14:17.127Z,99.6
2017-04-02T01:15:17.113Z,99.65
2017-04-02T01:16:17.091Z,98.94
2017-04-02T01:17:17.075Z,99.41
2017-04-02T01:18:17.058Z,99.7
2017-04-02T01:19:17.041Z,98.94
2017-04-02T01:20:17.023Z,99.46
2017-04-02T01:21:17.007Z,99.56
2017-04-02T01:22:16.990Z,99.37
2017-04-02T01:23:16.975Z,99.56
2017-04-02T01:24:16.958Z,99.56
2017-04-02T01:25:16.943Z,99.7
2017-04-02T01:26:16.923Z,99.04
2017-04-02T01:27:16.907Z,99.99
2017-04-02T01:28:16.888Z,99.7
2017-04-02T01:29:16.870Z,99.7
2017-04-02T01:30:16.859Z,99.88
2017-04-02T01:31:16.840Z,99.88
2017-04-02T01:32:16.824Z,99.7
2017-04-02T01:33:17.015Z,99.6
2017-04-02T01:34:16.787Z,99.7
2017-04-02T01:35:16.771Z,99.7
2017-04-02T01:36:16.758Z,99.7
2017-04-02T01:37:16.734Z,99.7
2017-04-02T01:38:16.719Z,99.79
2017-04-02T01:39:16.703Z,99.79
2017-04-02T01:40:16.688Z,99.6
2017-04-02T01:41:16.665Z,99.6
2017-04-02T01:42:16.648Z,99.7
2017-04-02T01:43:16.634Z,99.98
2017-04-02T01:44:16.613Z,99.99
2017-04-02T01:45:16.600Z,99.99
2017-04-02T01:46:16.581Z,99.79
2017-04-02T01:47:16.563Z,99.88
2017-04-02T01:48:16.547Z,99.88
2017-04-02T01:49:16.228Z,99.88
2017-04-02T01:50:16.511Z,99.98
2017-04-02T01:51:16.497Z,99.88
2017-04-02T01:52:16.483Z,99.79
2017-04-02T01:53:16.459Z,99.99
2017-04-02T01:54:16.443Z,99.79
2017-04-02T01:55:16.427Z,99.99
2017-04-02T01:56:16.411Z,99.99
2017-04-02T01:57:16.393Z,99.99
2017-04-02T01:58:16.372Z,99.99
2017-04-02T01:59:16.357Z,99.79
2017-04-02T02:00:16.340Z,99.88
2017-04-02T02:01:16.357Z,99.88
2017-04-02T02:02:29.952Z,99.88
2017-04-02T02:03:16.290Z,99.98
2017-04-02T02:04:16.273Z,99.98
2017-04-02T02:05:16.255Z,99.99
2017-04-02T02:06:16.443Z,99.98
2017-04-02T02:07:16.220Z,99.98
2017-04-02T02:08:16.208Z,99.98
2017-04-02T02:09:16.185Z,99.88
2017-04-02T02:10:16.171Z,99.88
2017-04-02T02:11:16.354Z,99.6
2017-04-02T02:12:16.133Z,99.7
2017-04-02T02:13:16.151Z,99.79
2017-04-02T02:14:16.099Z,99.98
2017-04-02T02:15:16.087Z,99.7
2017-04-02T02:16:16.071Z,99.99
2017-04-02T02:17:16.049Z,99.99
2017-04-02T02:18:16.033Z,99.99
2017-04-02T02:19:15.763Z,99.79
2017-04-02T02:20:15.998Z,99.99
2017-04-02T02:21:15.981Z,99.99
2017-04-02T02:22:15.962Z,99.99
2017-04-02T02:23:15.946Z,99.99
2017-04-02T02:24:15.930Z,99.99
2017-04-02T02:25:15.911Z,99.99
2017-04-02T02:26:15.896Z,99.99
2017-04-02T02:27:15.881Z,99.99
2017-04-02T02:28:15.858Z,99.99
2017-04-02T02:29:15.844Z,99.99
2017-04-02T02:30:15.828Z,99.99
2017-04-02T02:31:15.808Z,99.99
2017-04-02T02:32:15.793Z,99.99
2017-04-02T02:33:15.771Z,99.99
2017-04-02T02:34:15.754Z,99.99
2017-04-02T02:35:15.739Z,99.99
2017-04-02T02:36:15.724Z,99.99
2017-04-02T02:37:15.703Z,99.99
2017-04-02T02:38:15.688Z,99.99
2017-04-02T02:39:15.669Z,99.99
2017-04-02T02:40:15.650Z,99.99
2017-04-02T02:41:15.637Z,99.99
2017-04-02T02:42:15.616Z,99.99
2017-04-02T02:43:15.600Z,99.99
2017-04-02T02:44:15.580Z,99.99
2017-04-02T02:45:15.565Z,99.99
2017-04-02T02:46:15.551Z,99.99
2017-04-02T02:47:15.531Z,99.99
2017-04-02T02:48:15.516Z,99.99
2017-04-02T02:49:15.493Z,99.99
2017-04-02T02:50:15.483Z,99.99
2017-04-02T02:51:15.462Z,99.99
2017-04-02T02:52:15.448Z,99.99
2017-04-02T02:53:15.429Z,99.99
2017-04-02T02:54:15.411Z,99.99
2017-04-02T02:55:15.393Z,99.99
2017-04-02T02:56:15.378Z,99.99
2017-04-02T02:57:15.358Z,99.99
2017-04-02T02:58:15.344Z,99.99
2017-04-02T02:59:15.330Z,99.99
2017-04-02T03:00:15.312Z,99.99
2017-04-02T03:01:15.292Z,99.99
2017-04-02T03:02:15.275Z,99.99
2017-04-02T03:03:15.259Z,99.99
2017-04-02T03:04:15.244Z,99.99
2017-04-02T03:05:15.222Z,99.99
2017-04-02T03:06:15.208Z,99.99
2017-04-02T03:07:15.190Z,99.99
2017-04-02T03:08:15.176Z,99.99
2017-04-02T03:09:15.184Z,99.99
2017-04-02T03:10:15.137Z,99.99
2017-04-02T03:11:15.119Z,99.99
2017-04-02T03:12:15.105Z,99.99
2017-04-02T03:13:15.088Z,99.99
2017-04-02T03:14:15.068Z,99.99
2017-04-02T03:15:15.052Z,99.99
2017-04-02T03:16:15.037Z,99.99
2017-04-02T03:17:15.017Z,99.99
2017-04-02T03:18:14.999Z,99.99
2017-04-02T03:19:14.984Z,99.99
2017-04-02T03:20:14.967Z,99.99
2017-04-02T03:21:14.952Z,99.99
2017-04-02T03:22:14.933Z,99.99
2017-04-02T03:23:14.918Z,99.99
2017-04-02T03:24:14.897Z,99.99
2017-04-02T03:25:14.882Z,99.99
2017-04-02T03:26:14.866Z,99.99
2017-04-02T03:27:14.844Z,99.99
2017-04-02T03:28:14.831Z,99.99
2017-04-02T03:29:14.812Z,99.99
2017-04-02T03:30:14.799Z,99.99
2017-04-02T03:31:14.780Z,99.99
2017-04-02T03:32:14.760Z,99.99
2017-04-02T03:33:14.742Z,99.99
2017-04-02T03:34:14.727Z,99.99
2017-04-02T03:35:14.710Z,99.99
2017-04-02T03:36:14.693Z,99.99
2017-04-02T03:37:14.371Z,99.99
2017-04-02T03:38:14.360Z,99.99
2017-04-02T03:39:14.637Z,99.99
2017-04-02T03:40:14.622Z,99.99
2017-04-02T03:41:14.604Z,99.99
2017-04-02T03:42:14.588Z,99.99
2017-04-02T03:43:14.568Z,99.99
2017-04-02T03:44:14.550Z,99.99
2017-04-02T03:45:14.537Z,99.99
2017-04-02T03:46:14.516Z,99.99
2017-04-02T03:47:14.499Z,99.99
2017-04-02T03:48:14.486Z,99.99
2017-04-02T03:49:14.465Z,99.99
2017-04-02T03:50:14.451Z,99.99
2017-04-02T03:51:14.432Z,99.99
2017-04-02T03:52:14.417Z,99.99
2017-04-02T03:53:14.398Z,99.99
2017-04-02T03:54:14.383Z,99.99
2017-04-02T03:55:14.365Z,99.99
2017-04-02T03:56:14.355Z,99.99
2017-04-02T03:57:14.331Z,99.99
2017-04-02T03:58:14.315Z,99.99
2017-04-02T03:59:14.300Z,99.99
2017-04-02T04:00:14.279Z,99.99
2017-04-02T04:01:14.269Z,99.99
2017-04-02T04:02:13.949Z,99.99
2017-04-02T04:03:14.229Z,99.99
2017-04-02T04:04:14.213Z,99.99
2017-04-02T04:05:14.197Z,99.99
2017-04-02T04:06:14.182Z,99.99
2017-04-02T04:07:14.164Z,99.99
2017-04-02T04:08:14.149Z,99.99
2017-04-02T04:09:14.134Z,99.99
2017-04-02T04:10:14.113Z,99.99
2017-04-02T04:11:14.097Z,99.99
2017-04-02T04:12:14.083Z,99.99
2017-04-02T04:13:14.065Z,99.99
2017-04-02T04:14:14.061Z,99.99
2017-04-02T04:15:14.030Z,99.99
2017-04-02T04:16:14.016Z,99.99
2017-04-02T04:17:13.697Z,99.99
2017-04-02T04:18:13.978Z,99.99
2017-04-02T04:19:13.963Z,99.99
2017-04-02T04:20:13.948Z,99.99
2017-04-02T04:21:13.930Z,99.99
2017-04-02T04:22:13.916Z,99.99
2017-04-02T04:23:13.897Z,99.99
2017-04-02T04:24:13.879Z,99.99
2017-04-02T04:25:13.860Z,99.99
2017-04-02T04:26:13.845Z,99.99
2017-04-02T04:27:13.832Z,99.99
2017-04-02T04:28:13.508Z,99.99
2017-04-02T04:29:13.794Z,99.99
2017-04-02T04:30:13.778Z,99.99
2017-04-02T04:31:13.760Z,99.99
2017-04-02T04:32:13.440Z,99.99
2017-04-02T04:33:13.725Z,99.99
2017-04-02T04:34:13.709Z,99.99
2017-04-02T04:35:13.689Z,99.99
2017-04-02T04:36:13.673Z,99.99
2017-04-02T04:37:13.655Z,99.99
2017-04-02T04:38:13.643Z,99.99
2017-04-02T04:39:13.629Z,99.99
2017-04-02T04:40:13.603Z,99.99
2017-04-02T04:41:13.587Z,99.99
2017-04-02T04:42:13.570Z,99.99
2017-04-02T04:43:13.550Z,99.99
2017-04-02T04:44:13.534Z,99.99
2017-04-02T04:45:13.520Z,99.99
2017-04-02T04:46:13.200Z,99.99
2017-04-02T04:47:13.485Z,99.99
2017-04-02T04:48:13.466Z,99.99
2017-04-02T04:49:13.447Z,99.99
2017-04-02T04:50:13.434Z,99.99
2017-04-02T04:51:13.413Z,99.99
2017-04-02T04:52:13.399Z,99.88
2017-04-02T04:53:13.382Z,99.88
2017-04-02T04:54:13.367Z,99.7
2017-04-02T04:55:13.347Z,99.98
2017-04-02T04:56:13.329Z,99.99
2017-04-02T04:57:13.312Z,99.99
2017-04-02T04:58:13.293Z,99.98
2017-04-02T04:59:13.279Z,99.79
2017-04-02T05:00:13.260Z,99.88
2017-04-02T05:01:13.243Z,99.88
2017-04-02T05:02:13.227Z,99.51
2017-04-02T05:03:13.207Z,99.79
2017-04-02T05:04:13.189Z,99.88
2017-04-02T05:05:13.173Z,99.7
2017-04-02T05:06:13.159Z,99.79
2017-04-02T05:07:13.144Z,99.79
2017-04-02T05:08:13.124Z,99.56
2017-04-02T05:09:13.109Z,99.37
2017-04-02T05:10:13.093Z,99.18
2017-04-02T05:11:13.078Z,99.08
2017-04-02T05:12:13.056Z,99.22
2017-04-02T05:13:13.038Z,99.04
2017-04-02T05:14:13.023Z,99.13
2017-04-02T05:15:13.008Z,99.13
2017-04-02T05:16:12.993Z,98.99
2017-04-02T05:17:12.975Z,99.27
2017-04-02T05:18:12.958Z,98.8
2017-04-02T05:19:12.942Z,98.8
2017-04-02T05:20:12.924Z,98.99
2017-04-02T05:21:12.907Z,98.8
2017-04-02T05:22:12.892Z,98.9
2017-04-02T05:23:12.879Z,98.75
2017-04-02T05:24:12.860Z,98.85
2017-04-02T05:25:12.844Z,98.99
2017-04-02T05:26:12.828Z,98.9
2017-04-02T05:27:12.511Z,99.08
2017-04-02T05:28:12.795Z,98.99
2017-04-02T05:29:12.778Z,99.18
2017-04-02T05:30:12.761Z,98.71
2017-04-02T05:31:12.743Z,98.52
2017-04-02T05:32:12.730Z,98.43
2017-04-02T05:33:12.713Z,98.52
2017-04-02T05:34:12.696Z,98.61
2017-04-02T05:35:12.682Z,98.24
2017-04-02T05:36:12.664Z,98.33
2017-04-02T05:37:12.648Z,98.19
2017-04-02T05:38:12.628Z,98.76
2017-04-02T05:39:12.611Z,97.72
2017-04-02T05:40:12.596Z,97.81
2017-04-02T05:41:12.578Z,97.63
2017-04-02T05:42:12.566Z,97.3
2017-04-02T05:43:12.547Z,96.83
2017-04-02T05:44:12.533Z,96.31
2017-04-02T05:45:12.517Z,96.5
2017-04-02T05:46:12.498Z,96.5
2017-04-02T05:47:12.487Z,95.93
2017-04-02T05:48:12.465Z,95.83
2017-04-02T05:49:12.454Z,95.64
2017-04-02T05:50:12.440Z,95.07
2017-04-02T05:51:12.424Z,94.98
2017-04-02T05:52:12.406Z,94.98
2017-04-02T05:53:12.393Z,95.31
2017-04-02T05:54:12.378Z,94.74
2017-04-02T05:55:12.365Z,94.32
2017-04-02T05:56:12.349Z,94.42
2017-04-02T05:57:12.334Z,93.89
2017-04-02T05:58:12.318Z,93.8
2017-04-02T05:59:12.305Z,93.51
2017-04-02T06:00:12.289Z,93.23
2017-04-02T06:01:12.278Z,92.76
2017-04-02T06:02:12.262Z,93.27
2017-04-02T06:03:12.248Z,93.13
2017-04-02T06:04:11.934Z,93.08
2017-04-02T06:05:12.225Z,93.04
2017-04-02T06:06:12.209Z,92.94
2017-04-02T06:07:12.192Z,92.71
2017-04-02T06:08:12.178Z,92.8
2017-04-02T06:09:12.168Z,92.33
2017-04-02T06:10:12.155Z,92.33
2017-04-02T06:11:12.138Z,92.23
2017-04-02T06:12:12.134Z,91.61
2017-04-02T06:13:11.812Z,91.24
2017-04-02T06:14:12.102Z,91.14
2017-04-02T06:15:12.089Z,91.05
2017-04-02T06:16:12.076Z,91.09
2017-04-02T06:17:12.064Z,91
2017-04-02T06:18:12.050Z,90.81
2017-04-02T06:19:12.039Z,91
2017-04-02T06:20:12.023Z,90.81
2017-04-02T06:21:12.016Z,91.14
2017-04-02T06:22:12.000Z,90.95
2017-04-02T06:23:11.984Z,91.47
2017-04-02T06:24:11.971Z,91.19
2017-04-02T06:25:11.962Z,91.29
2017-04-02T06:26:11.947Z,91.48
2017-04-02T06:27:11.635Z,91.58
2017-04-02T06:28:11.921Z,91.96
2017-04-02T06:29:11.909Z,92.05
2017-04-02T06:30:11.599Z,91.86
2017-04-02T06:31:11.884Z,91.77
2017-04-02T06:32:11.568Z,92.05
2017-04-02T06:33:11.856Z,91.72
2017-04-02T06:34:11.541Z,91.62
2017-04-02T06:35:11.826Z,91.53
2017-04-02T06:36:11.819Z,91.62
2017-04-02T06:37:11.802Z,90.91
2017-04-02T06:38:11.791Z,91.15
2017-04-02T06:39:11.472Z,91.24
2017-04-02T06:40:11.764Z,90.96
2017-04-02T06:41:11.747Z,90.58
2017-04-02T06:42:11.434Z,91.05
2017-04-02T06:43:11.421Z,91.01
2017-04-02T06:44:11.406Z,90.91
2017-04-02T06:45:11.695Z,90.72
2017-04-02T06:46:11.681Z,90.44
2017-04-02T06:47:11.663Z,90.72
2017-04-02T06:48:11.652Z,90.63
2017-04-02T06:49:11.640Z,90.72
2017-04-02T06:50:11.624Z,90.3
2017-04-02T06:51:11.607Z,90.48
2017-04-02T06:52:11.606Z,90.3
2017-04-02T06:53:11.582Z,90.01
2017-04-02T06:54:11.573Z,89.87
2017-04-02T06:55:11.555Z,90.15
2017-04-02T06:56:11.540Z,90.25
2017-04-02T06:57:11.525Z,89.68
2017-04-02T06:58:11.512Z,89.73
2017-04-02T06:59:11.495Z,89.69
2017-04-02T07:00:11.481Z,89.59
2017-04-02T07:01:11.472Z,89.59
2017-04-02T07:02:11.452Z,89.44
2017-04-02T07:03:11.440Z,89.73
2017-04-02T07:04:11.429Z,89.44
2017-04-02T07:05:11.411Z,89.77
2017-04-02T07:06:11.399Z,89.54
2017-04-02T07:07:11.385Z,89.25
2017-04-02T07:08:11.370Z,89.16
2017-04-02T07:09:11.356Z,89.21
2017-04-02T07:10:11.343Z,89.35
2017-04-02T07:11:11.328Z,89.44
2017-04-02T07:12:11.313Z,89.58
2017-04-02T07:13:11.299Z,89.15
2017-04-02T07:14:11.287Z,89.44
2017-04-02T07:15:11.272Z,88.78
2017-04-02T07:16:11.257Z,89.25
2017-04-02T07:17:11.245Z,88.96
2017-04-02T07:18:11.232Z,88.87
2017-04-02T07:19:11.219Z,88.73
2017-04-02T07:20:11.202Z,88.78
2017-04-02T07:21:11.192Z,88.87
2017-04-02T07:22:10.877Z,88.82
2017-04-02T07:23:11.164Z,88.82
2017-04-02T07:24:11.149Z,88.4
2017-04-02T07:25:11.134Z,88.49
2017-04-02T07:26:11.122Z,88.35
2017-04-02T07:27:11.106Z,88.35
2017-04-02T07:28:11.095Z,87.54
2017-04-02T07:29:11.081Z,87.98
2017-04-02T07:30:11.066Z,88.26
2017-04-02T07:31:11.053Z,88.17
2017-04-02T07:32:11.040Z,87.74
2017-04-02T07:33:11.026Z,88.35
2017-04-02T07:34:11.014Z,87.73
2017-04-02T07:35:11.037Z,88.11
2017-04-02T07:36:10.989Z,87.78
2017-04-02T07:37:10.974Z,87.78
2017-04-02T07:38:10.958Z,87.98
2017-04-02T07:39:10.945Z,87.74
2017-04-02T07:40:10.938Z,88.02
2017-04-02T07:41:10.926Z,88.17
2017-04-02T07:42:10.906Z,88.07
2017-04-02T07:43:10.895Z,87.88
2017-04-02T07:44:10.879Z,88.35
2017-04-02T07:45:10.869Z,88.02
2017-04-02T07:46:10.856Z,87.83
2017-04-02T07:47:10.839Z,87.69
2017-04-02T07:48:10.828Z,87.69
2017-04-02T07:49:10.814Z,87.98
2017-04-02T07:50:10.800Z,87.98
2017-04-02T07:51:10.788Z,87.83
2017-04-02T07:52:10.773Z,87.73
2017-04-02T07:53:10.762Z,88.3
2017-04-02T07:54:10.749Z,88.11
2017-04-02T07:55:10.736Z,87.45
2017-04-02T07:56:10.726Z,87.64
2017-04-02T07:57:10.714Z,87.64
2017-04-02T07:58:10.702Z,87.87
2017-04-02T07:59:10.687Z,87.3
2017-04-02T08:00:10.672Z,87.21
2017-04-02T08:01:10.666Z,87.3
2017-04-02T08:02:10.651Z,87.35
2017-04-02T08:03:10.636Z,87.39
2017-04-02T08:04:10.624Z,87.49
2017-04-02T08:05:10.614Z,87.49
2017-04-02T08:06:10.607Z,87.3
2017-04-02T08:07:10.588Z,86.77
2017-04-02T08:08:10.577Z,87.05
2017-04-02T08:09:10.568Z,86.35
2017-04-02T08:10:10.555Z,86.45
2017-04-02T08:11:10.544Z,86.64
2017-04-02T08:12:10.534Z,86.68
2017-04-02T08:13:10.523Z,86.54
2017-04-02T08:14:10.508Z,86.72
2017-04-02T08:15:10.498Z,86.68
2017-04-02T08:16:10.490Z,86.39
2017-04-02T08:17:10.479Z,86.39
2017-04-02T08:18:10.164Z,86.39
2017-04-02T08:19:10.454Z,86.63
2017-04-02T08:20:10.449Z,85.58
2017-04-02T08:21:10.435Z,85.63
2017-04-02T08:22:10.124Z,85.63
2017-04-02T08:23:10.415Z,85.68
2017-04-02T08:24:10.401Z,85.78
2017-04-02T08:25:10.390Z,85.53
2017-04-02T08:26:10.383Z,85.77
2017-04-02T08:27:10.372Z,85.91
2017-04-02T08:28:10.366Z,85.76
2017-04-02T08:29:10.048Z,85.71
2017-04-02T08:30:10.341Z,85.75
2017-04-02T08:31:10.332Z,84.8
2017-04-02T08:32:10.322Z,84.62
2017-04-02T08:33:10.314Z,84.44
2017-04-02T08:34:10.306Z,84.29
2017-04-02T08:35:10.294Z,84.21
2017-04-02T08:36:10.286Z,84.03
2017-04-02T08:37:10.275Z,84.17
2017-04-02T08:38:10.263Z,84.78
2017-04-02T08:39:10.252Z,84.3
2017-04-02T08:40:10.242Z,84.44
2017-04-02T08:41:10.235Z,83.97
2017-04-02T08:42:10.227Z,83.39
2017-04-02T08:43:10.215Z,83.4
2017-04-02T08:44:10.206Z,83.5
2017-04-02T08:45:10.195Z,84.07
2017-04-02T08:46:10.186Z,84.11
2017-04-02T08:47:10.176Z,84.16
2017-04-02T08:48:10.164Z,84.2
2017-04-02T08:49:10.151Z,83.82
2017-04-02T08:50:10.142Z,83.72
2017-04-02T08:51:10.133Z,83.82
2017-04-02T08:52:10.120Z,83.59
2017-04-02T08:53:10.113Z,83.39
2017-04-02T08:54:10.100Z,83.53
2017-04-02T08:55:09.788Z,83.15
2017-04-02T08:56:10.080Z,82.87
2017-04-02T08:57:10.069Z,82.92
2017-04-02T08:58:10.060Z,82.88
2017-04-02T08:59:10.049Z,83.16
2017-04-02T09:00:09.734Z,83.26
2017-04-02T09:01:10.029Z,82.59
2017-04-02T09:02:10.022Z,82.55
2017-04-02T09:03:10.004Z,82.79
2017-04-02T09:04:09.997Z,82.98
2017-04-02T09:05:09.983Z,83.69
2017-04-02T09:06:09.976Z,83.54
2017-04-02T09:07:09.963Z,83.92
2017-04-02T09:08:09.649Z,83.78
2017-04-02T09:09:09.940Z,84.29
2017-04-02T09:10:09.931Z,83.86
2017-04-02T09:11:09.916Z,83.15
2017-04-02T09:12:09.908Z,83.01
2017-04-02T09:13:09.896Z,83.16
2017-04-02T09:14:09.885Z,82.69
2017-04-02T09:15:09.876Z,81.75
2017-04-02T09:16:09.861Z,82.09
2017-04-02T09:17:09.855Z,81.67
2017-04-02T09:18:09.840Z,82.2
2017-04-02T09:19:09.827Z,82.01
2017-04-02T09:20:09.514Z,82.86
2017-04-02T09:21:09.800Z,83.37
2017-04-02T09:22:09.791Z,83.8
2017-04-02T09:23:09.779Z,84.08
2017-04-02T09:24:09.765Z,84.03
2017-04-02T09:25:09.797Z,83.59
2017-04-02T09:26:09.744Z,83.46
2017-04-02T09:27:09.731Z,83.65
2017-04-02T09:28:09.727Z,84.22
2017-04-02T09:29:09.707Z,84.03
2017-04-02T09:30:09.694Z,84.07
2017-04-02T09:31:09.683Z,83.92
2017-04-02T09:32:09.670Z,83.83
2017-04-02T09:33:09.660Z,83.45
2017-04-02T09:34:09.345Z,83.45
2017-04-02T09:35:09.635Z,82.88
2017-04-02T09:36:09.322Z,82.74
2017-04-02T09:37:09.614Z,82.6
2017-04-02T09:38:09.600Z,83.17
2017-04-02T09:39:09.584Z,82.84
2017-04-02T09:40:09.575Z,83.31
2017-04-02T09:41:09.561Z,83.03
2017-04-02T09:42:09.246Z,82.04
2017-04-02T09:43:09.534Z,81.48
2017-04-02T09:44:09.523Z,81.92
2017-04-02T09:45:09.509Z,82.29
2017-04-02T09:46:09.499Z,81.87
2017-04-02T09:47:09.485Z,82.67
2017-04-02T09:48:09.171Z,82.86
2017-04-02T09:49:09.460Z,83.05
2017-04-02T09:50:09.456Z,82.95
2017-04-02T09:51:09.432Z,83.52
2017-04-02T09:52:09.420Z,83.62
2017-04-02T09:53:09.409Z,83.62
2017-04-02T09:54:09.395Z,83.94
2017-04-02T09:55:09.382Z,84.61
2017-04-02T09:56:09.067Z,83.85
2017-04-02T09:57:09.357Z,84.04
2017-04-02T09:58:09.343Z,84.61
2017-04-02T09:59:09.330Z,83.56
2017-04-02T10:00:09.318Z,83.05
2017-04-02T10:01:09.302Z,83.53
2017-04-02T10:02:08.991Z,84.29
2017-04-02T10:03:08.977Z,84.38
2017-04-02T10:04:09.265Z,84.42
2017-04-02T10:05:09.252Z,84.8
2017-04-02T10:06:09.235Z,85.08
2017-04-02T10:07:09.219Z,85.13
2017-04-02T10:08:09.208Z,85.03
2017-04-02T10:09:09.197Z,85.03
2017-04-02T10:10:09.182Z,85.03
2017-04-02T10:11:09.169Z,84.65
2017-04-02T10:12:09.154Z,84.61
2017-04-02T10:13:08.840Z,84.8
2017-04-02T10:14:08.826Z,84.74
2017-04-02T10:15:09.117Z,85.03
2017-04-02T10:16:09.100Z,84.27
2017-04-02T10:17:09.094Z,84.51
2017-04-02T10:18:08.774Z,84.51
2017-04-02T10:19:09.065Z,84.7
2017-04-02T10:20:09.049Z,85.22
2017-04-02T10:21:09.039Z,85.03
2017-04-02T10:22:09.025Z,84.88
2017-04-02T10:23:09.011Z,85.41
2017-04-02T10:24:08.995Z,85.45
2017-04-02T10:25:08.983Z,85.4
2017-04-02T10:26:08.973Z,85.53
2017-04-02T10:27:08.958Z,85.3
2017-04-02T10:28:08.950Z,85.49
2017-04-02T10:29:08.935Z,84.77
2017-04-02T10:30:08.923Z,84.55
2017-04-02T10:31:08.913Z,85.11
2017-04-02T10:32:08.900Z,84.49
2017-04-02T10:33:08.889Z,84.55
2017-04-02T10:34:08.882Z,84.55
2017-04-02T10:35:08.864Z,84.64
2017-04-02T10:36:08.856Z,84.45
2017-04-02T10:37:08.840Z,84.92
2017-04-02T10:38:08.826Z,85.01
2017-04-02T10:39:08.819Z,84.25
2017-04-02T10:40:08.806Z,84.01
2017-04-02T10:41:08.797Z,84.03
2017-04-02T10:42:08.784Z,84.46
2017-04-02T10:43:08.773Z,84.31
2017-04-02T10:44:08.761Z,84.36
2017-04-02T10:45:08.748Z,85.21
2017-04-02T10:46:08.745Z,85.16
2017-04-02T10:47:08.724Z,85.01
2017-04-02T10:48:08.716Z,85.01
2017-04-02T10:49:08.705Z,84.95
2017-04-02T10:50:08.690Z,84.86
2017-04-02T10:51:08.681Z,84.39
2017-04-02T10:52:08.672Z,84.39
2017-04-02T10:53:08.662Z,84.39
2017-04-02T10:54:08.651Z,84.2
2017-04-02T10:55:08.637Z,84.16
2017-04-02T10:56:08.629Z,84.11
2017-04-02T10:57:08.626Z,83.92
2017-04-02T10:58:08.305Z,84.68
2017-04-02T10:59:08.600Z,84.11
2017-04-02T11:00:08.588Z,84.44
2017-04-02T11:01:08.579Z,84.67
2017-04-02T11:02:08.565Z,84.72
2017-04-02T11:03:08.558Z,84.09
2017-04-02T11:04:08.547Z,83.76
2017-04-02T11:05:08.579Z,83.44
2017-04-02T11:06:08.528Z,83.26
2017-04-02T11:07:08.519Z,83.64
2017-04-02T11:08:08.504Z,83.36
2017-04-02T11:09:08.494Z,83.22
2017-04-02T11:10:08.487Z,83.46
2017-04-02T11:11:08.175Z,83.5
2017-04-02T11:12:08.466Z,82.93
2017-04-02T11:13:08.453Z,83.7
2017-04-02T11:14:08.446Z,83.65
2017-04-02T11:15:08.429Z,84.03
2017-04-02T11:16:08.118Z,83.65
2017-04-02T11:17:08.408Z,83.8
2017-04-02T11:18:08.396Z,84.31
2017-04-02T11:19:08.385Z,84.64
2017-04-02T11:20:08.072Z,84.4
2017-04-02T11:21:08.362Z,84.26
2017-04-02T11:22:08.350Z,84.01
2017-04-02T11:23:08.342Z,84.45
2017-04-02T11:24:08.024Z,84.68
2017-04-02T11:25:08.314Z,84.26
2017-04-02T11:26:08.307Z,84.72
2017-04-02T11:27:08.300Z,84.44
2017-04-02T11:28:08.285Z,84.44
2017-04-02T11:29:08.278Z,84.48
2017-04-02T11:30:07.959Z,84.62
2017-04-02T11:31:08.255Z,84.95
2017-04-02T11:32:08.243Z,84.47
2017-04-02T11:33:08.231Z,84.42
2017-04-02T11:34:07.922Z,84.84
2017-04-02T11:35:08.217Z,84.36
2017-04-02T11:36:08.202Z,84.41
2017-04-02T11:37:08.193Z,84.31
2017-04-02T11:38:08.182Z,83.65
2017-04-02T11:39:08.174Z,83.61
2017-04-02T11:40:08.163Z,83.61
2017-04-02T11:41:08.153Z,83.41
2017-04-02T11:42:07.845Z,83.32
2017-04-02T11:43:08.137Z,83.22
2017-04-02T11:44:07.827Z,83.32
2017-04-02T11:45:08.124Z,82.89
2017-04-02T11:46:08.116Z,82.46
2017-04-02T11:47:08.103Z,82
2017-04-02T11:48:08.099Z,82.57
2017-04-02T11:49:08.087Z,82.19
2017-04-02T11:50:08.079Z,81.96
2017-04-02T11:51:08.070Z,82.43
2017-04-02T11:52:08.059Z,82.38
2017-04-02T11:53:08.050Z,82.14
2017-04-02T11:54:08.040Z,82.57
2017-04-02T11:55:08.035Z,82.42
2017-04-02T11:56:08.024Z,82.32
2017-04-02T11:57:08.016Z,82.32
2017-04-02T11:58:08.010Z,82.65
2017-04-02T11:59:07.997Z,82.46
2017-04-02T12:00:07.991Z,82.56
2017-04-02T12:01:07.981Z,82.21
2017-04-02T12:02:07.669Z,82.21
2017-04-02T12:03:07.965Z,81.93
2017-04-02T12:04:07.952Z,82.21
2017-04-02T12:05:07.947Z,81.93
2017-04-02T12:06:07.939Z,81.84
2017-04-02T12:07:07.931Z,81.65
2017-04-02T12:08:07.921Z,81.13
2017-04-02T12:09:07.913Z,81.56
2017-04-02T12:10:07.905Z,81.7
2017-04-02T12:11:07.896Z,81.09
2017-04-02T12:12:07.584Z,80.71
2017-04-02T12:13:07.881Z,80.19
2017-04-02T12:14:07.870Z,80.72
2017-04-02T12:15:07.860Z,81.2
2017-04-02T12:16:07.852Z,80.95
2017-04-02T12:17:07.843Z,80.91
2017-04-02T12:18:07.833Z,81.58
2017-04-02T12:19:07.824Z,81.52
2017-04-02T12:20:07.816Z,81.47
2017-04-02T12:21:07.809Z,81.76
2017-04-02T12:22:07.801Z,81.41
2017-04-02T12:23:07.791Z,80.76
2017-04-02T12:24:07.781Z,80.82
2017-04-02T12:25:07.771Z,81.01
2017-04-02T12:26:07.764Z,81.1
2017-04-02T12:27:07.452Z,80.82
2017-04-02T12:28:07.445Z,81.58
2017-04-02T12:29:07.737Z,80.44
2017-04-02T12:30:07.427Z,80.87
2017-04-02T12:31:07.723Z,80.77
2017-04-02T12:32:07.713Z,80.77
2017-04-02T12:33:07.704Z,81.06
2017-04-02T12:34:07.391Z,81.54
2017-04-02T12:35:07.725Z,81.1
2017-04-02T12:36:07.374Z,80.63
2017-04-02T12:37:07.666Z,80.26
2017-04-02T12:38:07.658Z,80.41
2017-04-02T12:39:07.646Z,80.75
2017-04-02T12:40:07.641Z,80.56
2017-04-02T12:41:07.633Z,81.18
2017-04-02T12:42:07.619Z,80.99
2017-04-02T12:43:07.607Z,81.41
2017-04-02T12:44:07.597Z,81.88
2017-04-02T12:45:07.589Z,82.31
2017-04-02T12:46:07.284Z,83.2
2017-04-02T12:47:07.574Z,82.81
2017-04-02T12:48:07.257Z,82.24
2017-04-02T12:49:07.251Z,82.29
2017-04-02T12:50:07.540Z,82.39
2017-04-02T12:51:07.529Z,82.68
2017-04-02T12:52:07.519Z,82.39
2017-04-02T12:53:07.512Z,81.73
2017-04-02T12:54:07.197Z,81.73
2017-04-02T12:55:07.494Z,81.68